Time;durP1;ratioP1;P1;durP2;ratioP2;P2;SDS_P1;SDS_P2;PMS_P1;PMS_P2;Temp;Humidity;BMP_temperature;BMP_pressure;BME280_temperature;BME280_humidity;BME280_pressure;Samples;Min_cycle;Max_cycle;Signal;HPM_P1;HPM_P2
2023/01/03 00:00:01;;;;;;;1999.90;999.90;;;;;;;;;;4990221;28;20230;-76
2023/01/03 00:02:29;;;;;;;1999.90;999.90;;;;;;;;;;4996692;28;20237;-74
2023/01/03 00:04:58;;;;;;;1999.90;999.90;;;;;;;;;;5003943;28;20959;-75
2023/01/03 00:07:35;;;;;;;1999.90;999.90;;;;;;;;;;5018935;28;20234;-76
2023/01/03 00:10:06;;;;;;;1999.90;999.90;;;;;;;;;;5003795;28;20233;-75
2023/01/03 00:12:32;;;;;;;1999.90;999.90;;;;;;;;;;5002406;28;20320;-77
2023/01/03 00:15:01;;;;;;;1999.90;999.90;;;;;;;;;;4985852;28;20230;-76
2023/01/03 00:17:29;;;;;;;1999.90;999.90;;;;;;;;;;5003832;28;20237;-75
2023/01/03 00:19:58;;;;;;;1999.90;999.90;;;;;;;;;;5003416;28;21120;-76
2023/01/03 00:22:26;;;;;;;1999.90;999.90;;;;;;;;;;4986986;28;20230;-76
2023/01/03 00:24:54;;;;;;;1999.90;999.90;;;;;;;;;;4986383;28;20233;-76
2023/01/03 00:27:22;;;;;;;1999.90;999.90;;;;;;;;;;4987624;28;21016;-75
2023/01/03 00:29:49;;;;;;;1999.90;999.90;;;;;;;;;;5003278;28;20712;-75
2023/01/03 00:32:17;;;;;;;1999.90;999.90;;;;;;;;;;5004597;28;20262;-75
2023/01/03 00:34:46;;;;;;;1999.90;999.90;;;;;;;;;;5005548;28;20240;-75
2023/01/03 00:37:15;;;;;;;1999.90;999.90;;;;;;;;;;5009092;28;20261;-76
2023/01/03 00:39:43;;;;;;;1999.90;999.90;;;;;;;;;;5008184;28;20747;-75
2023/01/03 00:42:11;;;;;;;1999.90;999.90;;;;;;;;;;5005125;28;20241;-74
2023/01/03 00:44:39;;;;;;;1999.90;999.90;;;;;;;;;;5000305;28;20309;-74
2023/01/03 00:47:07;;;;;;;1999.90;999.90;;;;;;;;;;5004974;28;20234;-74
2023/01/03 00:49:35;;;;;;;1999.90;999.90;;;;;;;;;;5003291;28;20244;-75
2023/01/03 00:52:03;;;;;;;1999.90;999.90;;;;;;;;;;5005591;28;20312;-76
2023/01/03 00:54:33;;;;;;;1999.90;999.90;;;;;;;;;;5008177;28;20234;-75
2023/01/03 00:57:00;;;;;;;1999.90;999.90;;;;;;;;;;5007224;28;20351;-77
2023/01/03 00:59:28;;;;;;;1999.90;999.90;;;;;;;;;;4997224;28;21239;-75
2023/01/03 01:01:57;;;;;;;1999.90;999.90;;;;;;;;;;4990311;28;20749;-76
2023/01/03 01:04:27;;;;;;;1999.90;999.90;;;;;;;;;;5007303;28;20236;-76
2023/01/03 01:06:55;;;;;;;1999.90;999.90;;;;;;;;;;4987525;28;20233;-75
2023/01/03 01:09:24;;;;;;;1999.90;999.90;;;;;;;;;;4989617;28;20230;-76
2023/01/03 01:11:54;;;;;;;1999.90;999.90;;;;;;;;;;5005246;28;20316;-75
2023/01/03 01:14:23;;;;;;;1999.90;999.90;;;;;;;;;;5006808;28;20230;-75
2023/01/03 01:16:51;;;;;;;1999.90;999.90;;;;;;;;;;4990417;28;20230;-74
2023/01/03 01:19:20;;;;;;;1999.90;999.90;;;;;;;;;;4990012;28;20309;-75
2023/01/03 01:21:48;;;;;;;1999.90;999.90;;;;;;;;;;5003151;28;20664;-73
2023/01/03 01:24:16;;;;;;;1999.90;999.90;;;;;;;;;;5000625;28;20234;-72
2023/01/03 01:26:45;;;;;;;1999.90;999.90;;;;;;;;;;5005236;28;20234;-74
2023/01/03 01:29:15;;;;;;;1999.90;999.90;;;;;;;;;;5005993;28;20751;-75
2023/01/03 01:31:44;;;;;;;1999.90;999.90;;;;;;;;;;5002094;28;20237;-74
2023/01/03 01:34:12;;;;;;;1999.90;999.90;;;;;;;;;;4995077;28;20230;-74
2023/01/03 01:36:41;;;;;;;1999.90;999.90;;;;;;;;;;4979713;28;20245;-75
2023/01/03 01:39:12;;;;;;;1999.90;999.90;;;;;;;;;;5001113;28;20326;-74
2023/01/03 01:44:42;;;;;;;1999.90;999.90;;;;;;;;;;5005652;28;20232;-75
2023/01/03 01:47:13;;;;;;;1999.90;999.90;;;;;;;;;;4990052;28;20253;-76
2023/01/03 01:49:42;;;;;;;1999.90;999.90;;;;;;;;;;5006724;28;20345;-76
2023/01/03 01:52:10;;;;;;;1999.90;999.90;;;;;;;;;;5005585;28;20237;-75
2023/01/03 01:54:40;;;;;;;1999.90;999.90;;;;;;;;;;4990164;28;20230;-74
2023/01/03 01:57:09;;;;;;;1999.90;999.90;;;;;;;;;;4989856;28;20238;-75
2023/01/03 01:59:37;;;;;;;1999.90;999.90;;;;;;;;;;5007030;28;20238;-75
2023/01/03 02:02:08;;;;;;;1999.90;999.90;;;;;;;;;;4998459;28;20237;-75
2023/01/03 02:04:37;;;;;;;1999.90;999.90;;;;;;;;;;4990490;28;20226;-74
2023/01/03 02:07:06;;;;;;;1999.90;999.90;;;;;;;;;;5005914;28;20771;-75
2023/01/03 02:09:34;;;;;;;1999.90;999.90;;;;;;;;;;4989190;28;20265;-77
2023/01/03 02:14:58;;;;;;;1999.90;999.90;;;;;;;;;;4999716;28;20685;-75
2023/01/03 02:17:32;;;;;;;1999.90;999.90;;;;;;;;;;5002505;28;20230;-75
2023/01/03 02:20:04;;;;;;;1999.90;999.90;;;;;;;;;;4989670;28;20308;-76
2023/01/03 02:22:56;;;;;;;1999.90;999.90;;;;;;;;;;5003999;28;20229;-75
2023/01/03 02:25:41;;;;;;;1999.90;999.90;;;;;;;;;;5017728;28;20701;-75
2023/01/03 02:28:27;;;;;;;1999.90;999.90;;;;;;;;;;4963415;28;20242;-76
2023/01/03 02:30:59;;;;;;;1999.90;999.90;;;;;;;;;;5000522;28;20724;-76
2023/01/03 02:33:30;;;;;;;1999.90;999.90;;;;;;;;;;4993561;28;20236;-75
2023/01/03 02:36:04;;;;;;;1999.90;999.90;;;;;;;;;;5000245;28;20238;-74
2023/01/03 02:38:37;;;;;;;1999.90;999.90;;;;;;;;;;5002714;28;20229;-74
2023/01/03 02:41:07;;;;;;;1999.90;999.90;;;;;;;;;;5000746;28;20748;-74
2023/01/03 02:43:39;;;;;;;1999.90;999.90;;;;;;;;;;5001207;28;21529;-75
2023/01/03 02:46:09;;;;;;;1999.90;999.90;;;;;;;;;;5001581;28;20292;-75
2023/01/03 02:48:40;;;;;;;1999.90;999.90;;;;;;;;;;4991653;28;20244;-74
2023/01/03 02:51:13;;;;;;;1999.90;999.90;;;;;;;;;;4985121;28;20333;-75
2023/01/03 02:53:43;;;;;;;1999.90;999.90;;;;;;;;;;5003714;28;20254;-75
2023/01/03 02:56:12;;;;;;;1999.90;999.90;;;;;;;;;;4983921;28;20230;-75
2023/01/03 02:58:40;;;;;;;1999.90;999.90;;;;;;;;;;5002780;28;20240;-74
2023/01/03 03:01:12;;;;;;;1999.90;999.90;;;;;;;;;;4999431;28;20225;-75
2023/01/03 03:03:40;;;;;;;1999.90;999.90;;;;;;;;;;5002735;28;20288;-74
2023/01/03 03:06:11;;;;;;;1999.90;999.90;;;;;;;;;;4999123;28;20241;-73
2023/01/03 03:08:39;;;;;;;1999.90;999.90;;;;;;;;;;4986932;28;20917;-75
2023/01/03 03:13:54;;;;;;;1999.90;999.90;;;;;;;;;;5027150;22;20239;-70
2023/01/03 03:24:48;;;;;;;1999.90;999.90;;;;;;;;;;5023867;28;20240;-70
2023/01/03 03:24:49;;;;;;;1999.90;999.90;;;;;;;;;;5010317;28;20259;-70
2023/01/03 03:30:09;;;;;;;1999.90;999.90;;;;;;;;;;5028338;28;20243;-70
2023/01/03 03:32:38;;;;;;;1999.90;999.90;;;;;;;;;;5030230;28;20289;-70
2023/01/03 03:35:09;;;;;;;1999.90;999.90;;;;;;;;;;5029700;28;21259;-70
2023/01/03 03:37:37;;;;;;;1999.90;999.90;;;;;;;;;;5029251;28;20233;-69
2023/01/03 03:45:42;;;;;;;1999.90;999.90;;;;;;;;;;5027585;28;22619;-70
2023/01/03 03:48:13;;;;;;;1999.90;999.90;;;;;;;;;;5023048;28;20232;-71
2023/01/03 03:50:45;;;;;;;1999.90;999.90;;;;;;;;;;5029859;28;20236;-71
2023/01/03 03:53:14;;;;;;;1999.90;999.90;;;;;;;;;;5008421;28;20229;-71
2023/01/03 03:55:44;;;;;;;1999.90;999.90;;;;;;;;;;5028266;28;20287;-70
2023/01/03 03:58:15;;;;;;;1999.90;999.90;;;;;;;;;;5026461;28;20229;-70
2023/01/03 04:00:43;;;;;;;1999.90;999.90;;;;;;;;;;5024149;28;20230;-70
2023/01/03 04:03:13;;;;;;;1999.90;999.90;;;;;;;;;;5006298;28;20233;-70
2023/01/03 04:05:44;;;;;;;1999.90;999.90;;;;;;;;;;5021654;28;21098;-69
2023/01/03 04:08:12;;;;;;;1999.90;999.90;;;;;;;;;;5026110;28;20229;-70
2023/01/03 04:10:41;;;;;;;1999.90;999.90;;;;;;;;;;5028047;28;20241;-70
2023/01/03 04:13:09;;;;;;;1999.90;999.90;;;;;;;;;;5025939;28;20798;-70
2023/01/03 04:15:37;;;;;;;1999.90;999.90;;;;;;;;;;5024108;28;20786;-70
2023/01/03 04:18:05;;;;;;;1999.90;999.90;;;;;;;;;;5026877;28;20221;-70
2023/01/03 04:20:35;;;;;;;1999.90;999.90;;;;;;;;;;5024069;28;20272;-70
2023/01/03 04:23:02;;;;;;;1999.90;999.90;;;;;;;;;;5023360;28;20229;-70
2023/01/03 04:25:31;;;;;;;1999.90;999.90;;;;;;;;;;5040415;28;20233;-69
2023/01/03 04:27:59;;;;;;;1999.90;999.90;;;;;;;;;;5008187;28;20233;-70
2023/01/03 04:30:27;;;;;;;1999.90;999.90;;;;;;;;;;5026011;28;20972;-71
2023/01/03 04:32:55;;;;;;;1999.90;999.90;;;;;;;;;;5026923;28;20257;-71
2023/01/03 04:35:23;;;;;;;1999.90;999.90;;;;;;;;;;5024615;28;20229;-71
2023/01/03 04:37:53;;;;;;;1999.90;999.90;;;;;;;;;;5021994;28;20233;-71
2023/01/03 04:40:21;;;;;;;1999.90;999.90;;;;;;;;;;5024445;28;20244;-70
2023/01/03 04:45:34;;;;;;;1999.90;999.90;;;;;;;;;;5027338;28;20237;-70
2023/01/03 04:48:02;;;;;;;1999.90;999.90;;;;;;;;;;5028381;28;20606;-70
2023/01/03 04:50:30;;;;;;;1999.90;999.90;;;;;;;;;;5027712;28;20236;-70
2023/01/03 04:53:00;;;;;;;1999.90;999.90;;;;;;;;;;5027730;28;20288;-70
2023/01/03 04:55:28;;;;;;;1999.90;999.90;;;;;;;;;;5027674;28;20232;-70
2023/01/03 04:57:56;;;;;;;1999.90;999.90;;;;;;;;;;5010024;28;20245;-70
2023/01/03 05:00:24;;;;;;;1999.90;999.90;;;;;;;;;;5026438;28;22453;-70
2023/01/03 05:02:52;;;;;;;1999.90;999.90;;;;;;;;;;5024907;28;20316;-70
2023/01/03 05:05:20;;;;;;;1999.90;999.90;;;;;;;;;;5026269;28;21174;-70
2023/01/03 05:07:48;;;;;;;1999.90;999.90;;;;;;;;;;5026636;28;20233;-70
2023/01/03 05:10:17;;;;;;;1999.90;999.90;;;;;;;;;;5028081;28;20782;-70
2023/01/03 05:12:58;;;;;;;1999.90;999.90;;;;;;;;;;5025211;28;20237;-70
2023/01/03 05:15:27;;;;;;;1999.90;999.90;;;;;;;;;;5022196;28;20225;-70
2023/01/03 05:17:55;;;;;;;1999.90;999.90;;;;;;;;;;5026000;28;20260;-70
2023/01/03 05:25:58;;;;;;;1999.90;999.90;;;;;;;;;;5008011;28;20264;-70
2023/01/03 05:28:27;;;;;;;1999.90;999.90;;;;;;;;;;5024566;28;20736;-71
2023/01/03 05:30:57;;;;;;;1999.90;999.90;;;;;;;;;;5024158;28;20241;-71
2023/01/03 05:33:25;;;;;;;1999.90;999.90;;;;;;;;;;5024437;28;20332;-71
2023/01/03 05:35:53;;;;;;;1999.90;999.90;;;;;;;;;;5023789;28;20717;-71
2023/01/03 05:38:21;;;;;;;1999.90;999.90;;;;;;;;;;5022707;28;20414;-71
2023/01/03 05:40:49;;;;;;;1999.90;999.90;;;;;;;;;;5020519;28;20291;-71
2023/01/03 05:43:18;;;;;;;1999.90;999.90;;;;;;;;;;5023619;28;20241;-70
2023/01/03 05:45:49;;;;;;;1999.90;999.90;;;;;;;;;;5006073;28;20229;-70
2023/01/03 05:48:17;;;;;;;1999.90;999.90;;;;;;;;;;5035737;28;20340;-71
2023/01/03 05:50:46;;;;;;;1999.90;999.90;;;;;;;;;;5024772;28;20229;-71
2023/01/03 05:53:14;;;;;;;1999.90;999.90;;;;;;;;;;5020114;28;20243;-71
2023/01/03 05:55:42;;;;;;;1999.90;999.90;;;;;;;;;;5022247;28;20236;-70
2023/01/03 05:58:11;;;;;;;1999.90;999.90;;;;;;;;;;5023721;28;20306;-70
2023/01/03 06:00:40;;;;;;;1999.90;999.90;;;;;;;;;;5026418;28;20343;-70
2023/01/03 06:03:08;;;;;;;1999.90;999.90;;;;;;;;;;5023183;28;20264;-70
2023/01/03 06:05:36;;;;;;;1999.90;999.90;;;;;;;;;;5023021;28;20276;-71
2023/01/03 06:08:04;;;;;;;1999.90;999.90;;;;;;;;;;5039492;28;20323;-70
2023/01/03 06:10:32;;;;;;;1999.90;999.90;;;;;;;;;;5025712;28;20739;-70
2023/01/03 06:13:00;;;;;;;1999.90;999.90;;;;;;;;;;5005522;28;20413;-70
2023/01/03 06:15:28;;;;;;;1999.90;999.90;;;;;;;;;;5022726;28;20398;-70
2023/01/03 06:17:58;;;;;;;1999.90;999.90;;;;;;;;;;5025177;28;20225;-70
2023/01/03 06:20:27;;;;;;;1999.90;999.90;;;;;;;;;;5024419;28;20229;-70
2023/01/03 06:22:55;;;;;;;1999.90;999.90;;;;;;;;;;5021262;28;20452;-69
2023/01/03 06:25:23;;;;;;;1999.90;999.90;;;;;;;;;;5021701;28;20930;-70
2023/01/03 06:27:51;;;;;;;1999.90;999.90;;;;;;;;;;5024263;28;20232;-69
2023/01/03 06:30:19;;;;;;;1999.90;999.90;;;;;;;;;;5020251;28;20509;-70
2023/01/03 06:32:47;;;;;;;1999.90;999.90;;;;;;;;;;5020149;28;20440;-70
2023/01/03 06:35:17;;;;;;;1999.90;999.90;;;;;;;;;;5021905;28;20413;-69
2023/01/03 06:37:45;;;;;;;1999.90;999.90;;;;;;;;;;5004243;28;20562;-69
2023/01/03 06:40:13;;;;;;;1999.90;999.90;;;;;;;;;;5022814;28;20418;-69
2023/01/03 06:42:42;;;;;;;1999.90;999.90;;;;;;;;;;5025123;28;21162;-69
2023/01/03 06:53:32;;;;;;;1999.90;999.90;;;;;;;;;;5024198;28;20417;-71
2023/01/03 06:56:00;;;;;;;1999.90;999.90;;;;;;;;;;5038162;28;20465;-69
2023/01/03 06:58:28;;;;;;;1999.90;999.90;;;;;;;;;;5026412;28;20225;-69
2023/01/03 07:00:57;;;;;;;1999.90;999.90;;;;;;;;;;5024732;28;20268;-69
2023/01/03 07:03:25;;;;;;;1999.90;999.90;;;;;;;;;;5042677;28;20237;-69
2023/01/03 07:05:54;;;;;;;1999.90;999.90;;;;;;;;;;5025389;28;20317;-70
2023/01/03 07:08:23;;;;;;;1999.90;999.90;;;;;;;;;;5026172;28;20276;-70
2023/01/03 07:10:51;;;;;;;1999.90;999.90;;;;;;;;;;5023250;28;21556;-70
2023/01/03 07:16:04;;;;;;;1999.90;999.90;;;;;;;;;;5021294;28;20233;-70
2023/01/03 07:18:32;;;;;;;1999.90;999.90;;;;;;;;;;5018320;28;20217;-70
2023/01/03 07:21:05;;;;;;;1999.90;999.90;;;;;;;;;;5014765;28;20367;-70
2023/01/03 07:23:33;;;;;;;1999.90;999.90;;;;;;;;;;5021191;28;20253;-70
2023/01/03 07:26:01;;;;;;;1999.90;999.90;;;;;;;;;;5020690;28;20261;-70
2023/01/03 07:28:29;;;;;;;1999.90;999.90;;;;;;;;;;5022327;28;20284;-70
2023/01/03 07:31:00;;;;;;;1999.90;999.90;;;;;;;;;;5005685;28;20233;-70
2023/01/03 07:33:28;;;;;;;1999.90;999.90;;;;;;;;;;5007003;28;20229;-69
2023/01/03 07:35:59;;;;;;;1999.90;999.90;;;;;;;;;;5022980;28;21462;-70
2023/01/03 07:38:35;;;;;;;1999.90;999.90;;;;;;;;;;5023424;28;20319;-70
2023/01/03 07:41:04;;;;;;;1999.90;999.90;;;;;;;;;;5012055;28;20265;-70
2023/01/03 07:43:37;;;;;;;1999.90;999.90;;;;;;;;;;5028435;28;21317;-70
2023/01/03 07:46:09;;;;;;;1999.90;999.90;;;;;;;;;;5026699;28;20225;-69
2023/01/03 07:48:38;;;;;;;1999.90;999.90;;;;;;;;;;5022197;28;20221;-70
2023/01/03 07:51:06;;;;;;;1999.90;999.90;;;;;;;;;;5013190;28;20295;-70
2023/01/03 07:53:36;;;;;;;1999.90;999.90;;;;;;;;;;5017006;28;20237;-70
2023/01/03 07:56:05;;;;;;;1999.90;999.90;;;;;;;;;;5002351;28;20249;-70
2023/01/03 07:58:40;;;;;;;1999.90;999.90;;;;;;;;;;5004530;28;20228;-70
2023/01/03 08:01:08;;;;;;;1999.90;999.90;;;;;;;;;;5021426;28;20730;-70
2023/01/03 08:03:37;;;;;;;1999.90;999.90;;;;;;;;;;5003420;28;20233;-70
2023/01/03 08:06:07;;;;;;;1999.90;999.90;;;;;;;;;;5019658;28;20237;-70
2023/01/03 08:08:36;;;;;;;1999.90;999.90;;;;;;;;;;5018307;28;20239;-70
2023/01/03 08:13:50;;;;;;;1999.90;999.90;;;;;;;;;;5020899;28;20245;-70
2023/01/03 08:16:18;;;;;;;1999.90;999.90;;;;;;;;;;4993333;28;22086;-70
2023/01/03 08:18:46;;;;;;;1999.90;999.90;;;;;;;;;;5020380;28;20233;-70
2023/01/03 08:21:15;;;;;;;1999.90;999.90;;;;;;;;;;5020426;28;20784;-70
2023/01/03 08:23:47;;;;;;;1999.90;999.90;;;;;;;;;;5015085;28;20312;-70
2023/01/03 08:26:16;;;;;;;1999.90;999.90;;;;;;;;;;4994822;28;20225;-70
2023/01/03 08:28:44;;;;;;;1999.90;999.90;;;;;;;;;;5014119;28;20398;-70
2023/01/03 08:31:13;;;;;;;1999.90;999.90;;;;;;;;;;5008309;28;20413;-70
2023/01/03 08:33:44;;;;;;;1999.90;999.90;;;;;;;;;;5015777;28;20237;-69
2023/01/03 08:36:12;;;;;;;1999.90;999.90;;;;;;;;;;5016034;28;20237;-70
2023/01/03 08:38:43;;;;;;;1999.90;999.90;;;;;;;;;;5014913;28;20401;-70
2023/01/03 08:41:13;;;;;;;1999.90;999.90;;;;;;;;;;5031434;28;20425;-68
2023/01/03 08:43:42;;;;;;;1999.90;999.90;;;;;;;;;;5020588;28;20446;-68
2023/01/03 08:46:12;;;;;;;1999.90;999.90;;;;;;;;;;5021015;28;21199;-68
2023/01/03 08:48:40;;;;;;;1999.90;999.90;;;;;;;;;;5023370;28;20292;-68
2023/01/03 08:51:08;;;;;;;1999.90;999.90;;;;;;;;;;4995495;28;21142;-68
2023/01/03 08:53:37;;;;;;;1999.90;999.90;;;;;;;;;;5018120;28;20226;-68
2023/01/03 08:56:05;;;;;;;1999.90;999.90;;;;;;;;;;5017514;28;20249;-68
2023/01/03 08:58:35;;;;;;;1999.90;999.90;;;;;;;;;;5023308;28;20320;-68
2023/01/03 09:01:05;;;;;;;1999.90;999.90;;;;;;;;;;5016520;28;20973;-68
2023/01/03 09:03:34;;;;;;;1999.90;999.90;;;;;;;;;;5019032;28;20233;-68
2023/01/03 09:06:02;;;;;;;1999.90;999.90;;;;;;;;;;5020957;28;20398;-68
2023/01/03 09:08:31;;;;;;;1999.90;999.90;;;;;;;;;;5022792;28;20425;-68
2023/01/03 09:10:59;;;;;;;1999.90;999.90;;;;;;;;;;5023311;28;20503;-68
2023/01/03 09:13:27;;;;;;;1999.90;999.90;;;;;;;;;;5026363;28;20377;-68
2023/01/03 09:16:01;;;;;;;1999.90;999.90;;;;;;;;;;5039936;28;20410;-68
2023/01/03 09:18:29;;;;;;;1999.90;999.90;;;;;;;;;;5027301;28;20228;-67
2023/01/03 09:20:58;;;;;;;1999.90;999.90;;;;;;;;;;5021075;28;20766;-67
2023/01/03 09:23:26;;;;;;;1999.90;999.90;;;;;;;;;;5002309;28;20233;-67
2023/01/03 09:25:54;;;;;;;1999.90;999.90;;;;;;;;;;5020894;28;20233;-67
2023/01/03 09:28:22;;;;;;;1999.90;999.90;;;;;;;;;;5035328;28;20394;-68
2023/01/03 09:30:50;;;;;;;1999.90;999.90;;;;;;;;;;5021865;28;20316;-67
2023/01/03 09:33:19;;;;;;;1999.90;999.90;;;;;;;;;;5020641;28;20329;-68
2023/01/03 09:35:47;;;;;;;1999.90;999.90;;;;;;;;;;5018899;28;20235;-68
2023/01/03 09:38:16;;;;;;;1999.90;999.90;;;;;;;;;;5017792;28;20274;-68
2023/01/03 09:40:45;;;;;;;1999.90;999.90;;;;;;;;;;5015284;28;20372;-68
2023/01/03 09:43:15;;;;;;;1999.90;999.90;;;;;;;;;;5013453;28;20500;-68
2023/01/03 09:45:53;;;;;;;1999.90;999.90;;;;;;;;;;5011171;28;20429;-68
2023/01/03 09:48:27;;;;;;;1999.90;999.90;;;;;;;;;;4997782;28;21417;-69
2023/01/03 09:50:55;;;;;;;1999.90;999.90;;;;;;;;;;5035967;28;20398;-69
2023/01/03 10:49:19;;;;;;;1999.90;999.90;;;;;;;;;;5079224;28;21405;-67
2023/01/03 10:51:58;;;;;;;1999.90;999.90;;;;;;;;;;5065673;28;20231;-68
2023/01/03 10:54:29;;;;;;;1999.90;999.90;;;;;;;;;;5062762;28;20227;-68
2023/01/03 10:56:57;;;;;;;1999.90;999.90;;;;;;;;;;5051672;28;20750;-68
2023/01/03 10:59:26;;;;;;;1999.90;999.90;;;;;;;;;;5053595;28;20355;-68
2023/01/03 11:01:58;;;;;;;1999.90;999.90;;;;;;;;;;5050631;28;21621;-68
2023/01/03 11:04:28;;;;;;;1999.90;999.90;;;;;;;;;;5054143;28;20239;-68
2023/01/03 11:07:04;;;;;;;1999.90;999.90;;;;;;;;;;5053367;28;20763;-68
2023/01/03 11:09:34;;;;;;;1999.90;999.90;;;;;;;;;;5053932;28;20235;-68
2023/01/03 11:12:11;;;;;;;1999.90;999.90;;;;;;;;;;5054482;28;20244;-68
2023/01/03 11:14:39;;;;;;;1999.90;999.90;;;;;;;;;;5078039;27;20255;-68
2023/01/03 11:17:12;;;;;;;1999.90;999.90;;;;;;;;;;5040597;28;20973;-68
2023/01/03 11:19:41;;;;;;;1999.90;999.90;;;;;;;;;;5054709;28;20230;-68
2023/01/03 11:22:13;;;;;;;1999.90;999.90;;;;;;;;;;5060601;28;20232;-67
2023/01/03 11:24:50;;;;;;;1999.90;999.90;;;;;;;;;;5056546;28;20289;-67
2023/01/03 11:27:23;;;;;;;1999.90;999.90;;;;;;;;;;5088105;27;20228;-68
2023/01/03 11:30:01;;;;;;;1999.90;999.90;;;;;;;;;;5093358;27;20382;-68
2023/01/03 11:32:39;;;;;;;1999.90;999.90;;;;;;;;;;5061241;28;20311;-68
2023/01/03 11:35:25;;;;;;;1999.90;999.90;;;;;;;;;;5056855;28;20227;-68
2023/01/03 11:38:02;;;;;;;1999.90;999.90;;;;;;;;;;5051524;28;20311;-68
2023/01/03 11:40:35;;;;;;;1999.90;999.90;;;;;;;;;;5054082;28;20234;-68
2023/01/03 11:43:11;;;;;;;1999.90;999.90;;;;;;;;;;5038550;28;20228;-68
2023/01/03 11:45:47;;;;;;;1999.90;999.90;;;;;;;;;;5068267;28;21744;-68
2023/01/03 11:48:31;;;;;;;1999.90;999.90;;;;;;;;;;5059539;28;20250;-68
2023/01/03 11:51:05;;;;;;;1999.90;999.90;;;;;;;;;;5055660;28;20293;-68
2023/01/03 11:53:37;;;;;;;1999.90;999.90;;;;;;;;;;5065025;28;20228;-69
2023/01/03 11:56:09;;;;;;;1999.90;999.90;;;;;;;;;;5060087;28;20228;-69
2023/01/03 11:58:45;;;;;;;1999.90;999.90;;;;;;;;;;5051935;28;21022;-69
2023/01/03 12:01:19;;;;;;;1999.90;999.90;;;;;;;;;;5048409;28;20323;-69
2023/01/03 12:03:55;;;;;;;1999.90;999.90;;;;;;;;;;5042091;28;20260;-68
2023/01/03 12:06:30;;;;;;;1999.90;999.90;;;;;;;;;;5037907;28;20228;-68
2023/01/03 12:09:06;;;;;;;1999.90;999.90;;;;;;;;;;5039448;28;21181;-69
2023/01/03 12:12:01;;;;;;;1999.90;999.90;;;;;;;;;;5038366;28;20311;-70
2023/01/03 12:14:32;;;;;;;1999.90;999.90;;;;;;;;;;5010973;28;20259;-69
2023/01/03 12:17:03;;;;;;;1999.90;999.90;;;;;;;;;;5040733;28;20691;-69
2023/01/03 12:19:33;;;;;;;1999.90;999.90;;;;;;;;;;5035701;28;20798;-69
2023/01/03 12:22:04;;;;;;;1999.90;999.90;;;;;;;;;;5046244;28;20716;-69
2023/01/03 12:24:35;;;;;;;1999.90;999.90;;;;;;;;;;5039847;28;20232;-69
2023/01/03 12:27:05;;;;;;;1999.90;999.90;;;;;;;;;;5023095;28;20693;-69
2023/01/03 12:29:39;;;;;;;1999.90;999.90;;;;;;;;;;5043378;28;20240;-69
2023/01/03 12:32:10;;;;;;;1999.90;999.90;;;;;;;;;;5039149;28;20232;-69
2023/01/03 12:34:42;;;;;;;1999.90;999.90;;;;;;;;;;5038744;28;20617;-68
2023/01/03 12:37:13;;;;;;;1999.90;999.90;;;;;;;;;;5035434;28;20317;-69
2023/01/03 12:39:47;;;;;;;1999.90;999.90;;;;;;;;;;5031060;28;20232;-69
2023/01/03 12:42:19;;;;;;;1999.90;999.90;;;;;;;;;;5041278;28;20225;-69
2023/01/03 12:44:48;;;;;;;1999.90;999.90;;;;;;;;;;5044856;28;20964;-69
2023/01/03 12:47:22;;;;;;;1999.90;999.90;;;;;;;;;;5034614;28;20236;-69
2023/01/03 12:49:53;;;;;;;1999.90;999.90;;;;;;;;;;5037248;28;20669;-68
2023/01/03 12:52:23;;;;;;;1999.90;999.90;;;;;;;;;;5042641;28;20756;-69
2023/01/03 12:54:55;;;;;;;1999.90;999.90;;;;;;;;;;5026183;28;20225;-69
2023/01/03 12:57:42;;;;;;;1999.90;999.90;;;;;;;;;;5019757;28;20236;-69
2023/01/03 13:00:25;;;;;;;1999.90;999.90;;;;;;;;;;5017187;28;20232;-69
2023/01/03 13:02:56;;;;;;;1999.90;999.90;;;;;;;;;;5043524;28;20314;-68
2023/01/03 13:05:26;;;;;;;1999.90;999.90;;;;;;;;;;5040399;28;20675;-69
2023/01/03 13:08:01;;;;;;;1999.90;999.90;;;;;;;;;;5070111;28;20778;-68
2023/01/03 13:10:31;;;;;;;1999.90;999.90;;;;;;;;;;5030885;28;20221;-68
2023/01/03 13:13:00;;;;;;;1999.90;999.90;;;;;;;;;;5030366;28;20233;-68
2023/01/03 13:15:29;;;;;;;1999.90;999.90;;;;;;;;;;5030642;28;20313;-68
2023/01/03 13:18:17;;;;;;;1999.90;999.90;;;;;;;;;;5032058;28;20231;-68
2023/01/03 13:20:47;;;;;;;1999.90;999.90;;;;;;;;;;5021498;28;20306;-68
2023/01/03 13:23:34;;;;;;;1999.90;999.90;;;;;;;;;;5040646;28;20232;-68
2023/01/03 13:26:20;;;;;;;1999.90;999.90;;;;;;;;;;5034033;28;20326;-68
2023/01/03 13:28:48;;;;;;;1999.90;999.90;;;;;;;;;;5034748;28;20256;-68
2023/01/03 13:31:46;;;;;;;1999.90;999.90;;;;;;;;;;5037805;28;20260;-69
2023/01/03 13:34:31;;;;;;;1999.90;999.90;;;;;;;;;;5034234;28;20240;-68
2023/01/03 13:37:17;;;;;;;1999.90;999.90;;;;;;;;;;5035893;28;20298;-68
2023/01/03 13:39:58;;;;;;;1999.90;999.90;;;;;;;;;;5052313;28;21655;-68
2023/01/03 13:42:29;;;;;;;1999.90;999.90;;;;;;;;;;5042169;28;21049;-68
2023/01/03 13:45:12;;;;;;;1999.90;999.90;;;;;;;;;;5061228;28;20229;-68
2023/01/03 13:47:41;;;;;;;1999.90;999.90;;;;;;;;;;5064859;28;20319;-68
2023/01/03 13:50:18;;;;;;;1999.90;999.90;;;;;;;;;;5048340;28;20236;-68
2023/01/03 13:52:57;;;;;;;1999.90;999.90;;;;;;;;;;5036325;28;20262;-68
2023/01/03 13:55:35;;;;;;;1999.90;999.90;;;;;;;;;;5035231;28;20302;-68
2023/01/03 13:58:13;;;;;;;1999.90;999.90;;;;;;;;;;5038378;28;20228;-68
2023/01/03 14:00:41;;;;;;;1999.90;999.90;;;;;;;;;;5031617;28;20224;-68
2023/01/03 14:03:30;;;;;;;1999.90;999.90;;;;;;;;;;5035446;28;20226;-68
2023/01/03 14:06:17;;;;;;;1999.90;999.90;;;;;;;;;;5039349;28;20252;-68
2023/01/03 14:08:59;;;;;;;1999.90;999.90;;;;;;;;;;5046074;28;20719;-68
2023/01/03 14:11:37;;;;;;;1999.90;999.90;;;;;;;;;;5008759;28;20236;-68
2023/01/03 14:14:09;;;;;;;1999.90;999.90;;;;;;;;;;5039175;28;20255;-68
2023/01/03 14:16:41;;;;;;;1999.90;999.90;;;;;;;;;;5035014;28;20232;-68
2023/01/03 14:19:13;;;;;;;1999.90;999.90;;;;;;;;;;5064837;28;20229;-68
2023/01/03 14:21:43;;;;;;;1999.90;999.90;;;;;;;;;;5014933;28;20234;-68
2023/01/03 14:24:17;;;;;;;1999.90;999.90;;;;;;;;;;5040067;28;20233;-69
2023/01/03 14:26:45;;;;;;;1999.90;999.90;;;;;;;;;;5035674;28;20242;-68
2023/01/03 14:29:17;;;;;;;1999.90;999.90;;;;;;;;;;5042663;28;20260;-68
2023/01/03 14:31:45;;;;;;;1999.90;999.90;;;;;;;;;;5038472;28;20260;-68
2023/01/03 14:34:17;;;;;;;1999.90;999.90;;;;;;;;;;5039530;28;20723;-69
2023/01/03 14:36:45;;;;;;;1999.90;999.90;;;;;;;;;;5063353;28;20233;-68
2023/01/03 14:39:20;;;;;;;1999.90;999.90;;;;;;;;;;5038215;28;20525;-68
2023/01/03 14:41:48;;;;;;;1999.90;999.90;;;;;;;;;;5023463;28;20767;-69
2023/01/03 14:44:17;;;;;;;1999.90;999.90;;;;;;;;;;5037136;28;20231;-68
2023/01/03 14:46:51;;;;;;;1999.90;999.90;;;;;;;;;;5038976;28;20259;-68
2023/01/03 14:49:21;;;;;;;1999.90;999.90;;;;;;;;;;5039537;28;20236;-69
2023/01/03 14:51:49;;;;;;;1999.90;999.90;;;;;;;;;;5053822;28;20225;-69
2023/01/03 14:54:19;;;;;;;1999.90;999.90;;;;;;;;;;5065779;28;20226;-68
2023/01/03 14:56:48;;;;;;;1999.90;999.90;;;;;;;;;;5071143;28;20236;-69
2023/01/03 14:59:16;;;;;;;1999.90;999.90;;;;;;;;;;5025274;28;20225;-69
2023/01/03 15:01:46;;;;;;;1999.90;999.90;;;;;;;;;;5043357;28;20232;-69
2023/01/03 15:04:15;;;;;;;1999.90;999.90;;;;;;;;;;5035649;28;20220;-68
2023/01/03 15:06:55;;;;;;;1999.90;999.90;;;;;;;;;;5040149;28;20338;-68
2023/01/03 15:09:33;;;;;;;1999.90;999.90;;;;;;;;;;5069825;28;20248;-68
2023/01/03 15:12:03;;;;;;;1999.90;999.90;;;;;;;;;;5038372;28;20225;-69
2023/01/03 15:14:31;;;;;;;1999.90;999.90;;;;;;;;;;5043040;28;20220;-69
2023/01/03 15:17:05;;;;;;;1999.90;999.90;;;;;;;;;;5044613;28;20984;-68
2023/01/03 15:19:34;;;;;;;1999.90;999.90;;;;;;;;;;5072443;28;20271;-68
2023/01/03 15:22:07;;;;;;;1999.90;999.90;;;;;;;;;;5056800;28;20831;-69
2023/01/03 15:24:38;;;;;;;1999.90;999.90;;;;;;;;;;5042512;28;20681;-69
2023/01/03 15:27:29;;;;;;;1999.90;999.90;;;;;;;;;;5038036;28;20232;-68
2023/01/03 15:30:09;;;;;;;1999.90;999.90;;;;;;;;;;5017795;28;20233;-69
2023/01/03 15:32:46;;;;;;;1999.90;999.90;;;;;;;;;;5033102;28;20235;-68
2023/01/03 15:35:18;;;;;;;1999.90;999.90;;;;;;;;;;5040929;28;20229;-68
2023/01/03 15:37:46;;;;;;;1999.90;999.90;;;;;;;;;;5044194;28;21005;-69
2023/01/03 15:40:14;;;;;;;1999.90;999.90;;;;;;;;;;5049969;28;21010;-69
2023/01/03 15:45:26;;;;;;;1999.90;999.90;;;;;;;;;;5013459;28;20237;-69